Time;durP1;ratioP1;P1;durP2;ratioP2;P2;SDS_P1;SDS_P2;PMS_P1;PMS_P2;Temp;Humidity;BMP_temperature;BMP_pressure;BME280_temperature;BME280_humidity;BME280_pressure;Samples;Min_cycle;Max_cycle;Signal;HPM_P1;HPM_P2
2023/07/27 00:02:18;;;;;;;5.60;3.38;;;;;;;;;;4986752;28;20684;-58
2023/07/27 00:04:43;;;;;;;8.25;3.58;;;;;;;;;;4987936;28;20213;-58
2023/07/27 00:07:08;;;;;;;6.93;3.58;;;;;;;;;;4988622;28;20209;-58
2023/07/27 00:09:33;;;;;;;5.45;3.20;;;;;;;;;;4987990;28;20216;-58
2023/07/27 00:11:59;;;;;;;9.30;4.32;;;;;;;;;;4986892;28;20231;-58
2023/07/27 00:14:24;;;;;;;17.15;8.00;;;;;;;;;;4988615;28;20213;-58
2023/07/27 00:16:49;;;;;;;9.88;4.68;;;;;;;;;;4988993;28;20227;-58
2023/07/27 00:19:16;;;;;;;6.75;3.50;;;;;;;;;;4985441;28;20233;-58
2023/07/27 00:21:41;;;;;;;5.65;3.60;;;;;;;;;;4988724;28;20618;-58
2023/07/27 00:24:06;;;;;;;6.20;3.47;;;;;;;;;;4988268;28;20275;-59
2023/07/27 00:26:32;;;;;;;6.95;3.30;;;;;;;;;;4986309;28;21697;-58
2023/07/27 00:28:57;;;;;;;5.90;3.33;;;;;;;;;;4988583;28;20221;-58
2023/07/27 00:31:22;;;;;;;8.55;3.58;;;;;;;;;;4988045;28;20217;-59
2023/07/27 00:33:48;;;;;;;6.70;3.72;;;;;;;;;;4987425;28;20252;-58
2023/07/27 00:36:13;;;;;;;7.75;3.92;;;;;;;;;;4986783;28;20301;-58
2023/07/27 00:38:38;;;;;;;5.35;3.28;;;;;;;;;;4988757;28;20700;-58
2023/07/27 00:41:04;;;;;;;6.60;3.08;;;;;;;;;;4987505;28;20224;-58
2023/07/27 00:43:29;;;;;;;5.82;3.30;;;;;;;;;;4990476;28;20599;-58
2023/07/27 00:45:55;;;;;;;5.80;3.63;;;;;;;;;;4995522;28;20217;-58
2023/07/27 00:48:20;;;;;;;7.72;3.50;;;;;;;;;;4970630;28;20317;-58
2023/07/27 00:50:46;;;;;;;10.63;6.70;;;;;;;;;;4973710;28;20225;-58
2023/07/27 00:53:11;;;;;;;13.52;6.70;;;;;;;;;;4970714;28;20217;-58
2023/07/27 00:55:36;;;;;;;8.07;4.55;;;;;;;;;;4971950;28;20652;-58
2023/07/27 00:58:02;;;;;;;6.97;3.38;;;;;;;;;;4972654;28;20628;-58
2023/07/27 01:00:27;;;;;;;5.70;3.40;;;;;;;;;;4972120;28;20218;-58
2023/07/27 01:02:53;;;;;;;6.70;3.20;;;;;;;;;;4970945;28;20745;-59
2023/07/27 01:05:18;;;;;;;9.13;3.90;;;;;;;;;;4971096;28;20206;-58
2023/07/27 01:07:43;;;;;;;7.68;3.58;;;;;;;;;;4972144;28;20276;-58
2023/07/27 01:10:09;;;;;;;6.35;3.92;;;;;;;;;;4970098;28;20685;-59
2023/07/27 01:12:38;;;;;;;7.10;4.45;;;;;;;;;;4973054;28;20874;-59
2023/07/27 01:15:09;;;;;;;8.23;4.75;;;;;;;;;;4971617;28;20233;-59
2023/07/27 01:17:39;;;;;;;7.65;4.85;;;;;;;;;;4971423;28;20212;-59
2023/07/27 01:20:09;;;;;;;8.50;4.68;;;;;;;;;;4971220;28;20242;-59
2023/07/27 01:22:42;;;;;;;7.88;4.82;;;;;;;;;;4970748;28;20218;-59
2023/07/27 01:25:12;;;;;;;8.23;5.30;;;;;;;;;;4970834;28;20591;-59
2023/07/27 01:27:43;;;;;;;7.22;4.97;;;;;;;;;;4968711;28;20240;-59
2023/07/27 01:30:16;;;;;;;8.82;4.95;;;;;;;;;;4970762;28;20210;-60
2023/07/27 01:32:41;;;;;;;8.90;4.78;;;;;;;;;;4971245;28;20253;-59
2023/07/27 01:35:08;;;;;;;8.88;5.05;;;;;;;;;;4971254;28;20238;-60
2023/07/27 01:37:34;;;;;;;7.95;4.90;;;;;;;;;;4968781;28;20241;-59
2023/07/27 01:39:59;;;;;;;7.70;5.22;;;;;;;;;;4970574;28;20626;-59
2023/07/27 01:42:24;;;;;;;9.93;5.13;;;;;;;;;;4970387;28;20218;-59
2023/07/27 01:44:50;;;;;;;8.32;4.95;;;;;;;;;;4969424;28;20744;-60
2023/07/27 01:47:15;;;;;;;7.82;5.15;;;;;;;;;;4962839;28;20233;-60
2023/07/27 01:49:42;;;;;;;7.65;4.68;;;;;;;;;;4961972;28;20651;-60
2023/07/27 01:52:07;;;;;;;11.50;5.72;;;;;;;;;;4961205;28;20665;-60
2023/07/27 01:54:32;;;;;;;9.93;6.20;;;;;;;;;;4961187;28;20224;-60
2023/07/27 01:56:58;;;;;;;9.55;5.88;;;;;;;;;;4953079;28;20313;-60
2023/07/27 01:59:23;;;;;;;9.50;5.85;;;;;;;;;;4953145;28;20316;-60
2023/07/27 02:01:49;;;;;;;9.65;5.60;;;;;;;;;;4956073;28;20309;-60
2023/07/27 02:04:14;;;;;;;9.50;6.20;;;;;;;;;;4960229;28;20222;-60
2023/07/27 02:06:39;;;;;;;9.15;6.55;;;;;;;;;;4962877;28;20236;-60
2023/07/27 02:09:05;;;;;;;10.85;6.93;;;;;;;;;;4964928;28;20572;-60
2023/07/27 02:11:30;;;;;;;13.25;6.57;;;;;;;;;;4959415;28;20709;-60
2023/07/27 02:13:55;;;;;;;9.63;7.10;;;;;;;;;;4962684;28;20580;-60
2023/07/27 02:16:31;;;;;;;8.98;6.40;;;;;;;;;;4960719;28;20272;-60
2023/07/27 02:18:56;;;;;;;9.48;7.43;;;;;;;;;;4951969;28;20249;-60
2023/07/27 02:21:21;;;;;;;11.77;8.07;;;;;;;;;;4952339;28;20309;-60
2023/07/27 02:23:46;;;;;;;24.73;8.73;;;;;;;;;;4954944;28;20205;-60
2023/07/27 02:26:12;;;;;;;12.27;8.07;;;;;;;;;;4959442;28;20224;-60
2023/07/27 02:28:37;;;;;;;17.90;7.80;;;;;;;;;;4959686;28;20217;-60
2023/07/27 02:31:02;;;;;;;12.85;7.85;;;;;;;;;;4961022;28;20217;-60
2023/07/27 02:33:28;;;;;;;13.95;8.30;;;;;;;;;;4960695;28;20229;-60
2023/07/27 02:35:55;;;;;;;11.05;8.02;;;;;;;;;;4959794;28;20217;-61
2023/07/27 02:38:20;;;;;;;13.38;8.63;;;;;;;;;;4961078;28;20222;-60
2023/07/27 02:40:45;;;;;;;12.27;8.15;;;;;;;;;;4955661;28;20264;-61
2023/07/27 02:43:10;;;;;;;12.40;7.85;;;;;;;;;;4950899;28;20260;-61
2023/07/27 02:45:36;;;;;;;12.57;8.43;;;;;;;;;;4953647;28;20421;-60
2023/07/27 02:48:01;;;;;;;15.55;9.57;;;;;;;;;;4974554;28;20885;-61
2023/07/27 02:50:26;;;;;;;14.27;9.05;;;;;;;;;;4979524;28;20267;-61
2023/07/27 02:52:52;;;;;;;12.10;8.43;;;;;;;;;;4979265;28;20219;-60
2023/07/27 02:55:17;;;;;;;13.73;9.02;;;;;;;;;;4978536;28;20225;-60
2023/07/27 02:57:42;;;;;;;14.20;9.85;;;;;;;;;;4980018;28;20224;-60
2023/07/27 03:00:09;;;;;;;13.57;9.98;;;;;;;;;;4977502;28;20271;-60
2023/07/27 03:02:34;;;;;;;14.50;9.63;;;;;;;;;;4977629;28;20263;-60
2023/07/27 03:04:59;;;;;;;12.52;9.13;;;;;;;;;;4972180;28;20225;-60
2023/07/27 03:07:25;;;;;;;15.43;10.93;;;;;;;;;;4969882;28;21061;-60
2023/07/27 03:09:51;;;;;;;14.75;10.77;;;;;;;;;;4975302;28;20205;-60
2023/07/27 03:12:16;;;;;;;15.77;10.35;;;;;;;;;;4979779;28;20272;-60
2023/07/27 03:14:41;;;;;;;15.15;11.30;;;;;;;;;;4978270;28;20845;-60
2023/07/27 03:17:08;;;;;;;18.65;12.32;;;;;;;;;;4978396;28;20263;-60
2023/07/27 03:19:33;;;;;;;16.63;12.45;;;;;;;;;;4980071;28;20272;-61
2023/07/27 03:21:59;;;;;;;17.65;12.52;;;;;;;;;;4979584;28;20221;-60
2023/07/27 03:24:24;;;;;;;14.90;11.57;;;;;;;;;;4977136;28;20707;-61
2023/07/27 03:26:49;;;;;;;16.90;12.75;;;;;;;;;;4983308;28;20319;-61
2023/07/27 03:29:14;;;;;;;15.77;11.88;;;;;;;;;;4987446;28;20263;-61
2023/07/27 03:31:40;;;;;;;17.42;11.68;;;;;;;;;;4988098;28;20224;-61
2023/07/27 03:34:05;;;;;;;19.02;13.50;;;;;;;;;;4977093;28;20305;-62
2023/07/27 03:36:31;;;;;;;16.85;11.85;;;;;;;;;;4971660;28;20220;-61
2023/07/27 03:38:56;;;;;;;19.48;13.38;;;;;;;;;;4972960;28;20237;-61
2023/07/27 03:41:21;;;;;;;19.52;12.63;;;;;;;;;;4977637;28;20297;-61
2023/07/27 03:43:47;;;;;;;24.60;14.43;;;;;;;;;;4978990;28;20213;-61
2023/07/27 03:46:12;;;;;;;16.48;12.35;;;;;;;;;;4978901;28;20213;-61
2023/07/27 03:48:37;;;;;;;20.15;13.63;;;;;;;;;;4977347;28;20233;-60
2023/07/27 03:51:03;;;;;;;17.90;14.63;;;;;;;;;;4978681;28;20228;-60
2023/07/27 03:53:28;;;;;;;21.48;14.85;;;;;;;;;;4979299;28;21049;-60
2023/07/27 03:55:54;;;;;;;20.13;13.80;;;;;;;;;;4972966;28;20217;-60
2023/07/27 03:58:19;;;;;;;18.58;14.73;;;;;;;;;;4969659;28;20217;-61
2023/07/27 04:00:44;;;;;;;19.77;15.43;;;;;;;;;;4971521;28;20233;-60
2023/07/27 04:03:10;;;;;;;20.67;16.08;;;;;;;;;;4976977;28;20224;-60
2023/07/27 04:05:35;;;;;;;21.85;17.30;;;;;;;;;;4977226;28;20247;-60
2023/07/27 04:08:00;;;;;;;23.48;15.93;;;;;;;;;;4978706;28;20220;-60
2023/07/27 04:10:26;;;;;;;20.75;16.50;;;;;;;;;;4979310;28;20236;-60
2023/07/27 04:12:51;;;;;;;19.38;15.30;;;;;;;;;;4976963;28;20229;-60
2023/07/27 04:15:17;;;;;;;20.40;14.45;;;;;;;;;;4978619;28;20221;-61
2023/07/27 04:17:42;;;;;;;18.05;13.88;;;;;;;;;;4975239;28;20240;-61
2023/07/27 04:20:08;;;;;;;16.48;13.25;;;;;;;;;;4970044;28;20236;-61
2023/07/27 04:22:33;;;;;;;19.00;13.98;;;;;;;;;;4972102;28;20221;-61
2023/07/27 04:24:59;;;;;;;16.58;12.95;;;;;;;;;;4977045;28;20217;-60
2023/07/27 04:27:24;;;;;;;17.48;12.75;;;;;;;;;;4977164;28;20217;-62
2023/07/27 04:29:49;;;;;;;15.02;11.95;;;;;;;;;;4979342;28;20565;-61
2023/07/27 04:32:15;;;;;;;17.50;10.63;;;;;;;;;;4977398;28;20560;-60
2023/07/27 04:34:40;;;;;;;13.95;11.38;;;;;;;;;;4977424;28;20224;-61
2023/07/27 04:37:05;;;;;;;16.25;11.05;;;;;;;;;;4978869;28;20252;-61
2023/07/27 04:39:31;;;;;;;15.93;11.25;;;;;;;;;;4977153;28;20283;-61
2023/07/27 04:41:56;;;;;;;13.00;9.63;;;;;;;;;;4952329;28;20213;-62
2023/07/27 04:44:22;;;;;;;12.82;8.73;;;;;;;;;;4970696;28;20232;-62
2023/07/27 04:46:47;;;;;;;14.13;9.80;;;;;;;;;;4970829;28;21168;-60
2023/07/27 04:49:12;;;;;;;13.15;9.73;;;;;;;;;;4977246;28;20212;-61
2023/07/27 04:51:38;;;;;;;12.63;8.05;;;;;;;;;;4978023;28;20692;-61
2023/07/27 04:54:03;;;;;;;11.18;8.52;;;;;;;;;;4977689;28;20308;-61
2023/07/27 04:56:29;;;;;;;15.10;8.18;;;;;;;;;;4978413;28;20229;-61
2023/07/27 04:58:54;;;;;;;12.50;8.77;;;;;;;;;;4977136;28;20220;-60
2023/07/27 05:01:20;;;;;;;24.63;8.20;;;;;;;;;;4977245;28;20221;-60
2023/07/27 05:03:45;;;;;;;14.25;8.18;;;;;;;;;;4974869;28;20259;-62
2023/07/27 05:06:10;;;;;;;11.65;7.75;;;;;;;;;;4972345;28;21067;-61
2023/07/27 05:08:36;;;;;;;11.57;7.82;;;;;;;;;;4969287;28;20283;-61
2023/07/27 05:11:02;;;;;;;11.38;6.82;;;;;;;;;;4976160;28;20209;-60
2023/07/27 05:13:27;;;;;;;11.77;8.40;;;;;;;;;;4977554;28;20213;-61
2023/07/27 05:15:53;;;;;;;15.13;8.60;;;;;;;;;;4977165;28;20268;-60
2023/07/27 05:18:18;;;;;;;12.45;7.82;;;;;;;;;;4976815;28;20300;-60
2023/07/27 05:20:43;;;;;;;11.85;7.45;;;;;;;;;;4978919;28;20230;-60
2023/07/27 05:23:09;;;;;;;12.35;7.38;;;;;;;;;;4977623;28;20586;-60
2023/07/27 05:25:34;;;;;;;11.30;8.10;;;;;;;;;;4973659;28;20208;-60
2023/07/27 05:27:59;;;;;;;15.18;8.20;;;;;;;;;;4971496;28;20232;-60
2023/07/27 05:30:25;;;;;;;11.55;7.75;;;;;;;;;;4973682;28;20768;-61
2023/07/27 05:32:50;;;;;;;9.55;7.20;;;;;;;;;;4975763;28;20326;-60
2023/07/27 05:35:15;;;;;;;10.95;7.50;;;;;;;;;;4980708;28;20221;-62
2023/07/27 05:37:46;;;;;;;10.63;7.35;;;;;;;;;;4981875;28;20245;-60
2023/07/27 05:40:11;;;;;;;12.23;7.07;;;;;;;;;;4980969;28;20630;-60
2023/07/27 05:42:37;;;;;;;10.73;7.63;;;;;;;;;;4979930;28;20225;-60
2023/07/27 05:45:02;;;;;;;13.02;7.40;;;;;;;;;;4981484;28;20216;-60
2023/07/27 05:47:28;;;;;;;10.93;6.38;;;;;;;;;;4980418;28;20237;-60
2023/07/27 05:49:54;;;;;;;11.40;7.68;;;;;;;;;;4971769;28;20224;-61
2023/07/27 05:52:19;;;;;;;10.10;7.57;;;;;;;;;;4973087;28;20213;-60
2023/07/27 05:54:44;;;;;;;9.98;5.95;;;;;;;;;;4975179;28;20209;-60
2023/07/27 05:57:10;;;;;;;8.50;5.65;;;;;;;;;;4981443;28;20271;-59
2023/07/27 05:59:35;;;;;;;7.97;6.05;;;;;;;;;;4983602;28;20244;-60
2023/07/27 06:02:00;;;;;;;11.40;6.70;;;;;;;;;;4979365;28;20439;-60
2023/07/27 06:04:27;;;;;;;8.77;6.13;;;;;;;;;;4980011;28;20209;-61
2023/07/27 06:06:53;;;;;;;10.82;5.50;;;;;;;;;;4980721;28;20693;-60
2023/07/27 06:09:18;;;;;;;8.43;5.80;;;;;;;;;;4979457;28;20706;-60
2023/07/27 06:11:44;;;;;;;8.55;6.05;;;;;;;;;;4973450;28;20201;-60
2023/07/27 06:14:09;;;;;;;8.68;5.85;;;;;;;;;;4973232;28;21799;-61
2023/07/27 06:16:34;;;;;;;12.60;5.38;;;;;;;;;;4973491;28;20271;-61
2023/07/27 06:19:00;;;;;;;9.00;6.60;;;;;;;;;;4975906;28;20243;-61
2023/07/27 06:21:25;;;;;;;7.78;5.80;;;;;;;;;;4980982;28;20312;-61
2023/07/27 06:23:50;;;;;;;8.88;5.88;;;;;;;;;;4981082;28;20217;-63
2023/07/27 06:26:15;;;;;;;8.32;6.13;;;;;;;;;;4978864;28;20213;-61
2023/07/27 06:28:41;;;;;;;6.57;5.00;;;;;;;;;;4979557;28;20256;-61
2023/07/27 06:31:06;;;;;;;9.98;5.57;;;;;;;;;;4980341;28;20310;-61
2023/07/27 06:33:31;;;;;;;16.50;5.30;;;;;;;;;;4976889;28;20641;-62
2023/07/27 06:35:57;;;;;;;8.77;5.43;;;;;;;;;;4971574;28;21447;-61
2023/07/27 06:38:22;;;;;;;7.00;5.45;;;;;;;;;;4971882;28;20919;-61
2023/07/27 06:40:48;;;;;;;6.95;4.88;;;;;;;;;;4975570;28;20312;-61
2023/07/27 06:43:13;;;;;;;7.43;4.57;;;;;;;;;;4978329;28;20601;-61
2023/07/27 06:45:38;;;;;;;7.32;4.22;;;;;;;;;;4980051;28;20224;-62
2023/07/27 06:48:04;;;;;;;11.68;4.22;;;;;;;;;;4980261;28;20233;-60
2023/07/27 06:50:29;;;;;;;6.93;4.50;;;;;;;;;;4979256;28;20213;-60
2023/07/27 06:52:54;;;;;;;5.32;3.95;;;;;;;;;;4978675;28;20217;-61
2023/07/27 06:55:20;;;;;;;6.60;4.10;;;;;;;;;;4979059;28;20224;-60
2023/07/27 06:57:46;;;;;;;6.30;3.92;;;;;;;;;;4988360;28;20228;-61
2023/07/27 07:00:12;;;;;;;5.60;3.83;;;;;;;;;;4986377;28;20233;-60
2023/07/27 07:02:37;;;;;;;4.75;3.47;;;;;;;;;;4989703;28;20283;-61
2023/07/27 07:05:03;;;;;;;5.40;3.30;;;;;;;;;;4989124;28;20692;-61
2023/07/27 07:07:29;;;;;;;3.97;3.30;;;;;;;;;;4980712;28;20621;-61
2023/07/27 07:09:54;;;;;;;5.65;3.30;;;;;;;;;;4989127;28;20217;-63
2023/07/27 07:12:19;;;;;;;3.90;3.08;;;;;;;;;;4989151;28;20217;-60
2023/07/27 07:14:44;;;;;;;4.63;3.10;;;;;;;;;;4987250;28;20289;-62
2023/07/27 07:17:11;;;;;;;3.85;2.90;;;;;;;;;;4987326;28;20300;-61
2023/07/27 07:19:36;;;;;;;4.78;2.90;;;;;;;;;;4989090;28;20314;-62
2023/07/27 07:22:01;;;;;;;6.28;2.88;;;;;;;;;;4987893;28;20300;-61
2023/07/27 07:24:27;;;;;;;7.57;2.90;;;;;;;;;;4986960;28;20221;-61
2023/07/27 07:26:52;;;;;;;4.30;2.90;;;;;;;;;;4989347;28;20220;-60
2023/07/27 07:29:17;;;;;;;4.38;2.60;;;;;;;;;;4988303;28;20578;-61
2023/07/27 07:31:43;;;;;;;4.93;2.00;;;;;;;;;;4987315;28;20220;-61
2023/07/27 07:34:08;;;;;;;3.90;2.15;;;;;;;;;;4989660;28;20248;-61
2023/07/27 07:36:33;;;;;;;2.92;1.80;;;;;;;;;;4991133;28;20639;-60
2023/07/27 07:38:59;;;;;;;5.47;2.05;;;;;;;;;;4987892;28;20224;-60
2023/07/27 07:41:24;;;;;;;3.75;2.33;;;;;;;;;;4988987;28;20217;-60
2023/07/27 07:43:49;;;;;;;3.65;2.00;;;;;;;;;;4987428;28;20216;-60
2023/07/27 07:46:15;;;;;;;6.53;1.80;;;;;;;;;;4987208;28;20221;-60
2023/07/27 07:48:40;;;;;;;3.90;1.60;;;;;;;;;;4988567;28;20271;-60
2023/07/27 07:51:12;;;;;;;5.60;1.80;;;;;;;;;;4987899;28;20677;-60
2023/07/27 07:53:37;;;;;;;2.70;1.58;;;;;;;;;;4986190;28;20227;-60
2023/07/27 07:56:03;;;;;;;4.10;1.30;;;;;;;;;;4987978;28;20284;-60
2023/07/27 07:58:28;;;;;;;1.67;1.38;;;;;;;;;;4988319;28;20590;-60
2023/07/27 08:00:54;;;;;;;12.13;2.20;;;;;;;;;;4987510;28;20292;-60
2023/07/27 08:03:19;;;;;;;5.90;1.80;;;;;;;;;;4987241;28;20259;-60
2023/07/27 08:05:44;;;;;;;2.08;1.70;;;;;;;;;;4988756;28;20222;-60
2023/07/27 08:08:10;;;;;;;9.18;2.30;;;;;;;;;;4987595;28;20217;-60
2023/07/27 08:10:35;;;;;;;9.57;2.45;;;;;;;;;;4986766;28;20773;-60
2023/07/27 08:13:01;;;;;;;3.38;2.25;;;;;;;;;;4988790;28;20279;-60
2023/07/27 08:15:26;;;;;;;6.45;2.15;;;;;;;;;;4989366;28;20221;-60
2023/07/27 08:17:51;;;;;;;2.65;1.90;;;;;;;;;;4985439;28;20225;-60
2023/07/27 08:20:16;;;;;;;2.45;1.90;;;;;;;;;;4987694;28;20225;-60
2023/07/27 08:22:42;;;;;;;8.43;1.90;;;;;;;;;;4988225;28;20209;-61
2023/07/27 08:25:07;;;;;;;5.82;1.77;;;;;;;;;;4986105;28;20224;-60
2023/07/27 08:27:34;;;;;;;4.85;1.90;;;;;;;;;;4987520;28;20239;-60
2023/07/27 08:29:59;;;;;;;6.40;1.88;;;;;;;;;;4988697;28;20718;-60
2023/07/27 08:32:25;;;;;;;6.00;1.85;;;;;;;;;;4986802;28;20232;-60
2023/07/27 08:34:50;;;;;;;2.30;1.65;;;;;;;;;;4986409;28;20231;-60
2023/07/27 08:37:15;;;;;;;3.83;1.90;;;;;;;;;;4987556;28;20713;-60
2023/07/27 08:39:41;;;;;;;4.18;1.80;;;;;;;;;;4987539;28;20315;-60
2023/07/27 08:42:06;;;;;;;3.05;2.00;;;;;;;;;;4985962;28;20241;-61
2023/07/27 08:44:32;;;;;;;2.33;1.90;;;;;;;;;;4970267;28;20692;-60
2023/07/27 08:46:57;;;;;;;2.95;1.92;;;;;;;;;;4974109;28;20322;-60
2023/07/27 08:49:22;;;;;;;2.90;2.30;;;;;;;;;;4950011;28;20221;-60
2023/07/27 08:51:49;;;;;;;4.35;2.33;;;;;;;;;;4957615;28;20258;-60
2023/07/27 08:54:14;;;;;;;4.72;2.15;;;;;;;;;;4960871;28;20222;-60
2023/07/27 08:56:40;;;;;;;5.93;2.20;;;;;;;;;;4946481;28;20634;-60
2023/07/27 08:59:05;;;;;;;5.03;2.35;;;;;;;;;;4954181;28;20225;-60
2023/07/27 09:01:31;;;;;;;4.05;2.55;;;;;;;;;;4954555;28;20211;-60
2023/07/27 09:03:57;;;;;;;9.25;2.40;;;;;;;;;;4950775;28;20234;-60
2023/07/27 09:06:36;;;;;;;7.47;1.98;;;;;;;;;;4957092;28;20678;-60
2023/07/27 09:09:10;;;;;;;3.95;1.88;;;;;;;;;;4953541;28;20316;-60
2023/07/27 09:11:36;;;;;;;12.00;2.55;;;;;;;;;;4964434;28;20206;-61
2023/07/27 09:14:01;;;;;;;3.78;2.00;;;;;;;;;;4957541;28;20574;-60
2023/07/27 09:16:27;;;;;;;24.25;3.60;;;;;;;;;;4958506;28;20298;-60
2023/07/27 09:18:52;;;;;;;3.75;2.35;;;;;;;;;;4951365;28;20527;-60
2023/07/27 09:21:17;;;;;;;7.43;2.35;;;;;;;;;;4955985;28;20575;-60
2023/07/27 09:23:43;;;;;;;5.93;2.38;;;;;;;;;;4955611;28;20211;-60
2023/07/27 09:26:08;;;;;;;5.55;2.40;;;;;;;;;;4951634;28;20221;-60
2023/07/27 09:28:34;;;;;;;7.40;2.40;;;;;;;;;;4954558;28;20221;-61
2023/07/27 09:30:59;;;;;;;4.05;2.35;;;;;;;;;;4958619;28;20707;-61
2023/07/27 09:33:24;;;;;;;4.20;2.60;;;;;;;;;;4953655;28;20281;-60
2023/07/27 09:35:50;;;;;;;6.55;2.20;;;;;;;;;;4951602;28;20218;-61
2023/07/27 09:38:15;;;;;;;5.40;2.22;;;;;;;;;;4956935;28;20821;-60
2023/07/27 09:40:41;;;;;;;5.57;2.53;;;;;;;;;;4957884;28;20233;-61
2023/07/27 09:43:07;;;;;;;6.40;2.30;;;;;;;;;;4950517;28;20229;-61
2023/07/27 09:45:38;;;;;;;3.78;2.20;;;;;;;;;;4955182;28;20214;-61
2023/07/27 09:48:04;;;;;;;3.15;2.20;;;;;;;;;;4984391;28;20255;-62
2023/07/27 09:50:29;;;;;;;4.03;2.47;;;;;;;;;;4989318;28;20229;-61
2023/07/27 09:52:55;;;;;;;5.15;2.53;;;;;;;;;;4989624;28;20275;-61
2023/07/27 09:55:20;;;;;;;6.05;3.00;;;;;;;;;;4988650;28;20228;-61
2023/07/27 09:57:45;;;;;;;6.95;2.65;;;;;;;;;;4971999;28;20224;-61
2023/07/27 10:00:11;;;;;;;4.22;2.63;;;;;;;;;;4969991;28;20232;-61
2023/07/27 10:02:36;;;;;;;6.53;3.20;;;;;;;;;;4994425;28;20299;-63
2023/07/27 10:05:02;;;;;;;4.28;2.88;;;;;;;;;;5003726;28;20702;-61
2023/07/27 10:07:28;;;;;;;5.60;3.10;;;;;;;;;;4977833;28;20209;-62
2023/07/27 10:10:12;;;;;;;13.55;4.28;;;;;;;;;;4989209;28;20255;-61
2023/07/27 10:12:37;;;;;;;9.43;4.07;;;;;;;;;;4989318;28;20251;-61
2023/07/27 10:15:19;;;;;;;6.35;3.95;;;;;;;;;;4971221;28;20248;-62
2023/07/27 10:17:45;;;;;;;7.93;4.10;;;;;;;;;;4989885;28;20217;-62
2023/07/27 10:20:21;;;;;;;6.43;4.78;;;;;;;;;;4989867;28;20235;-61
2023/07/27 10:22:50;;;;;;;6.47;4.85;;;;;;;;;;4988845;28;20244;-61
2023/07/27 10:25:15;;;;;;;5.75;4.45;;;;;;;;;;4987996;28;20223;-61
2023/07/27 10:27:53;;;;;;;6.90;4.57;;;;;;;;;;4990161;28;20341;-61
2023/07/27 10:30:19;;;;;;;6.57;4.60;;;;;;;;;;4989596;28;20225;-61
2023/07/27 10:33:04;;;;;;;6.95;4.20;;;;;;;;;;4988241;28;20581;-60
2023/07/27 10:35:30;;;;;;;9.63;4.80;;;;;;;;;;4988851;28;20624;-63
2023/07/27 10:37:55;;;;;;;7.68;4.35;;;;;;;;;;4989759;28;20224;-63
2023/07/27 10:40:25;;;;;;;6.43;4.57;;;;;;;;;;4989099;28;20336;-62
2023/07/27 10:42:55;;;;;;;6.72;4.95;;;;;;;;;;4988450;28;20299;-63
2023/07/27 10:45:27;;;;;;;8.77;4.88;;;;;;;;;;4989167;28;20275;-62
2023/07/27 10:47:55;;;;;;;11.15;5.18;;;;;;;;;;4990272;28;20221;-63
2023/07/27 10:50:21;;;;;;;8.70;5.60;;;;;;;;;;4988033;28;20571;-62
2023/07/27 10:52:46;;;;;;;6.68;5.38;;;;;;;;;;4988332;28;20221;-63
2023/07/27 10:55:12;;;;;;;6.03;4.63;;;;;;;;;;4968767;28;20220;-62
2023/07/27 10:57:38;;;;;;;7.43;5.18;;;;;;;;;;4969905;28;20232;-63
2023/07/27 11:00:04;;;;;;;11.82;5.90;;;;;;;;;;4985429;28;20257;-62
2023/07/27 11:02:31;;;;;;;9.73;5.60;;;;;;;;;;4992572;28;20232;-62
2023/07/27 11:04:58;;;;;;;12.75;6.07;;;;;;;;;;4993168;28;20270;-62
2023/07/27 11:07:24;;;;;;;7.97;5.75;;;;;;;;;;4991321;28;20811;-62
2023/07/27 11:09:50;;;;;;;7.13;5.85;;;;;;;;;;4990154;28;20303;-63
2023/07/27 11:12:15;;;;;;;7.22;6.10;;;;;;;;;;4974712;28;20216;-63
2023/07/27 11:14:41;;;;;;;7.03;5.57;;;;;;;;;;4991877;28;20209;-63
2023/07/27 11:17:07;;;;;;;8.10;5.53;;;;;;;;;;4989789;28;20225;-63
2023/07/27 11:19:32;;;;;;;13.32;6.05;;;;;;;;;;4991527;28;20229;-63
2023/07/27 11:21:58;;;;;;;11.93;5.90;;;;;;;;;;4992342;28;20217;-62
2023/07/27 11:24:23;;;;;;;6.72;5.68;;;;;;;;;;4974477;28;20224;-63
2023/07/27 11:26:48;;;;;;;19.38;6.03;;;;;;;;;;4973770;28;20213;-62
2023/07/27 11:29:14;;;;;;;11.80;5.50;;;;;;;;;;4991844;28;20216;-63
2023/07/27 11:31:39;;;;;;;13.00;5.32;;;;;;;;;;4992396;28;20627;-62
2023/07/27 11:34:04;;;;;;;12.90;5.72;;;;;;;;;;4991054;28;20292;-62
2023/07/27 11:36:30;;;;;;;12.75;4.80;;;;;;;;;;4991884;28;20217;-62
2023/07/27 11:38:56;;;;;;;8.90;5.53;;;;;;;;;;4989682;28;20228;-62
2023/07/27 11:41:22;;;;;;;11.50;5.40;;;;;;;;;;4973582;28;20665;-62
2023/07/27 11:43:51;;;;;;;7.18;5.53;;;;;;;;;;4992012;28;20228;-62
2023/07/27 11:46:17;;;;;;;6.18;5.15;;;;;;;;;;4973456;28;20701;-62
2023/07/27 11:48:42;;;;;;;5.85;4.60;;;;;;;;;;4970387;28;20210;-61
2023/07/27 11:51:07;;;;;;;11.02;5.00;;;;;;;;;;4971866;28;20249;-61
2023/07/27 11:53:33;;;;;;;8.98;4.55;;;;;;;;;;4972575;28;20987;-62
2023/07/27 11:55:58;;;;;;;7.18;4.40;;;;;;;;;;4971766;28;20213;-62
2023/07/27 11:58:26;;;;;;;5.57;4.60;;;;;;;;;;4971884;28;20241;-61
2023/07/27 12:00:51;;;;;;;7.30;4.50;;;;;;;;;;4979033;28;20240;-61
2023/07/27 12:03:19;;;;;;;6.15;4.55;;;;;;;;;;4990738;28;20221;-62
2023/07/27 12:05:45;;;;;;;12.32;4.88;;;;;;;;;;4991514;28;20304;-61
2023/07/27 12:08:10;;;;;;;6.68;4.85;;;;;;;;;;4991136;28;20304;-61
2023/07/27 12:10:35;;;;;;;6.75;4.93;;;;;;;;;;4991018;28;20205;-62
2023/07/27 12:13:03;;;;;;;6.53;5.35;;;;;;;;;;4991188;28;20249;-62
2023/07/27 12:15:31;;;;;;;6.57;5.00;;;;;;;;;;4991549;28;20219;-62
2023/07/27 12:17:57;;;;;;;7.22;4.80;;;;;;;;;;4990965;28;20217;-62
2023/07/27 12:20:22;;;;;;;6.20;4.65;;;;;;;;;;4990844;28;20614;-61
2023/07/27 12:22:48;;;;;;;6.85;4.60;;;;;;;;;;4990950;28;20626;-62
2023/07/27 12:25:13;;;;;;;10.82;4.65;;;;;;;;;;4990909;28;20260;-62
2023/07/27 12:27:38;;;;;;;8.85;4.35;;;;;;;;;;4990839;28;20228;-62
2023/07/27 12:30:04;;;;;;;6.78;4.60;;;;;;;;;;4989908;28;20667;-62
2023/07/27 12:32:30;;;;;;;5.72;4.55;;;;;;;;;;4991474;28;20661;-62
2023/07/27 12:34:55;;;;;;;8.45;4.57;;;;;;;;;;4991280;28;20685;-61
2023/07/27 12:37:20;;;;;;;5.05;4.25;;;;;;;;;;4986917;28;20271;-61
2023/07/27 12:39:46;;;;;;;7.65;4.53;;;;;;;;;;4992950;28;20299;-61
2023/07/27 12:42:11;;;;;;;5.88;4.60;;;;;;;;;;4990933;28;20300;-61
2023/07/27 12:44:36;;;;;;;18.27;5.25;;;;;;;;;;4990109;28;20213;-61
2023/07/27 12:47:02;;;;;;;7.57;4.82;;;;;;;;;;4991275;28;20315;-61
2023/07/27 12:49:27;;;;;;;14.23;4.90;;;;;;;;;;4991648;28;20227;-61
2023/07/27 12:51:52;;;;;;;9.88;4.78;;;;;;;;;;4988903;28;20231;-62
2023/07/27 12:54:18;;;;;;;7.45;4.20;;;;;;;;;;4991032;28;20248;-61
2023/07/27 12:56:43;;;;;;;7.65;3.97;;;;;;;;;;4991507;28;20254;-61
2023/07/27 12:59:08;;;;;;;7.97;3.92;;;;;;;;;;4988927;28;20228;-61
2023/07/27 13:01:34;;;;;;;8.13;3.92;;;;;;;;;;4991245;28;20217;-62
2023/07/27 13:03:59;;;;;;;5.47;3.63;;;;;;;;;;4991785;28;20580;-61
2023/07/27 13:06:24;;;;;;;5.85;4.50;;;;;;;;;;4990185;28;20625;-61
2023/07/27 13:08:50;;;;;;;5.80;4.60;;;;;;;;;;4989871;28;20225;-62
2023/07/27 13:11:15;;;;;;;6.78;3.97;;;;;;;;;;4991112;28;20228;-61
2023/07/27 13:13:40;;;;;;;5.28;3.97;;;;;;;;;;4990547;28;20225;-61
2023/07/27 13:16:06;;;;;;;6.25;4.28;;;;;;;;;;4988785;28;20739;-61
2023/07/27 13:18:31;;;;;;;6.35;3.90;;;;;;;;;;4991009;28;20220;-61
2023/07/27 13:20:56;;;;;;;4.00;3.60;;;;;;;;;;4990655;28;20302;-61
2023/07/27 13:23:22;;;;;;;4.80;3.80;;;;;;;;;;4989655;28;20244;-61
2023/07/27 13:25:47;;;;;;;10.18;3.72;;;;;;;;;;4990495;28;20275;-61
2023/07/27 13:28:12;;;;;;;7.57;3.55;;;;;;;;;;4989948;28;20208;-61
2023/07/27 13:30:38;;;;;;;4.80;3.20;;;;;;;;;;4990003;28;20264;-61
2023/07/27 13:33:03;;;;;;;5.47;3.22;;;;;;;;;;4980159;28;20210;-61
2023/07/27 13:35:28;;;;;;;5.03;3.65;;;;;;;;;;4976932;28;20221;-61
2023/07/27 13:37:54;;;;;;;4.03;3.22;;;;;;;;;;4978082;28;20312;-61
2023/07/27 13:40:19;;;;;;;6.20;3.67;;;;;;;;;;4978516;28;20358;-60
2023/07/27 13:42:44;;;;;;;5.10;3.30;;;;;;;;;;4984592;28;20256;-61
2023/07/27 13:45:10;;;;;;;3.92;3.22;;;;;;;;;;4985097;28;20221;-61
2023/07/27 13:47:35;;;;;;;6.57;3.83;;;;;;;;;;4983828;28;20225;-60
2023/07/27 13:50:00;;;;;;;4.90;3.28;;;;;;;;;;4980570;28;20217;-60
2023/07/27 13:52:26;;;;;;;4.90;3.72;;;;;;;;;;4985585;28;20259;-60
2023/07/27 13:54:51;;;;;;;5.03;3.70;;;;;;;;;;4983285;28;20588;-61
2023/07/27 13:57:17;;;;;;;11.63;4.13;;;;;;;;;;4974523;28;20786;-60
2023/07/27 13:59:42;;;;;;;5.68;3.80;;;;;;;;;;4977357;28;20229;-60
2023/07/27 14:02:07;;;;;;;5.20;3.50;;;;;;;;;;4977120;28;20241;-60
2023/07/27 14:04:33;;;;;;;4.15;3.22;;;;;;;;;;4982493;28;20213;-60
2023/07/27 14:06:58;;;;;;;5.00;3.10;;;;;;;;;;4984202;28;20983;-60
2023/07/27 14:09:25;;;;;;;3.35;3.05;;;;;;;;;;4983714;28;20213;-61
2023/07/27 14:11:50;;;;;;;4.90;2.70;;;;;;;;;;4984066;28;20586;-61
2023/07/27 14:14:15;;;;;;;2.95;2.20;;;;;;;;;;4982959;28;20209;-61
2023/07/27 14:16:40;;;;;;;3.70;2.33;;;;;;;;;;4983566;28;20221;-61
2023/07/27 14:19:06;;;;;;;3.20;2.10;;;;;;;;;;4978027;28;20217;-62
2023/07/27 14:21:31;;;;;;;3.75;1.80;;;;;;;;;;4974643;28;20225;-62
2023/07/27 14:23:57;;;;;;;3.97;1.40;;;;;;;;;;4977145;28;20224;-62
2023/07/27 14:26:22;;;;;;;2.25;1.40;;;;;;;;;;4981381;28;20217;-62
2023/07/27 14:28:47;;;;;;;2.95;1.40;;;;;;;;;;4983209;28;20634;-62
2023/07/27 14:31:12;;;;;;;4.10;1.30;;;;;;;;;;4982415;28;20248;-62